Terminal Aerodrome Forecast
Issued by NWS Knoxville/Tri Cities, TN

Home | Current Version | Previous Version | Text Only | Print | Product List | Glossary On
Versions: 1 2 3 4 5 6 7 8 9 10 11 12 13 14 15 16 17 18 19 20 21 22 23 24 25 26 27 28 29 30 31 32 33 34 35 36 37 38 39 40 41 42 43 44 45
953
FTUS44 KMRX 091223 AAB
TAFTRI
TAF AMD
KTRI 091223Z 0912/1012 26010KT P6SM -SHSN OVC040
      TEMPO 0912/0916 1SM -SHSN OVC015
     FM091800 26010G18KT P6SM VCSH OVC025
     FM100100 26010KT 4SM -SN BR OVC025=

USA.gov is the U.S. government's official web portal to all federal, state and local government web resources and services.